sensor_id;sensor_type;location;lat;lon;timestamp;pressure;altitude;pressure_sealevel;temperature;humidity
61109;BME280;46995;55.740;37.402;2022-11-10T00:01:43;99710.53;;;9.45;80.49
61109;BME280;46995;55.740;37.402;2022-11-10T00:04:27;99688.75;;;9.31;80.64
61109;BME280;46995;55.740;37.402;2022-11-10T00:07:11;99726.81;;;9.61;80.22
61109;BME280;46995;55.740;37.402;2022-11-10T00:09:55;99733.78;;;9.62;80.10
61109;BME280;46995;55.740;37.402;2022-11-10T00:12:40;99723.69;;;9.56;80.28
61109;BME280;46995;55.740;37.402;2022-11-10T00:15:24;99705.25;;;9.45;80.28
61109;BME280;46995;55.740;37.402;2022-11-10T00:18:27;99699.50;;;9.28;80.37
61109;BME280;46995;55.740;37.402;2022-11-10T00:21:12;99680.81;;;9.20;80.54
61109;BME280;46995;55.740;37.402;2022-11-10T00:23:57;99693.50;;;9.26;80.44
61109;BME280;46995;55.740;37.402;2022-11-10T00:26:41;99734.34;;;9.43;80.97
61109;BME280;46995;55.740;37.402;2022-11-10T00:29:25;99728.97;;;9.45;81.27
61109;BME280;46995;55.740;37.402;2022-11-10T00:32:09;99715.44;;;9.38;80.53
61109;BME280;46995;55.740;37.402;2022-11-10T00:34:54;99698.28;;;9.21;80.84
61109;BME280;46995;55.740;37.402;2022-11-10T00:37:38;99682.97;;;9.15;80.72
61109;BME280;46995;55.740;37.402;2022-11-10T00:40:22;99715.22;;;9.41;80.71
61109;BME280;46995;55.740;37.402;2022-11-10T00:43:06;99696.88;;;9.28;80.70
61109;BME280;46995;55.740;37.402;2022-11-10T00:45:50;99708.63;;;9.35;80.47
61109;BME280;46995;55.740;37.402;2022-11-10T00:48:35;99689.69;;;9.30;80.76
61109;BME280;46995;55.740;37.402;2022-11-10T00:51:22;99680.31;;;9.26;80.30
61109;BME280;46995;55.740;37.402;2022-11-10T00:54:07;99678.19;;;9.31;80.20
61109;BME280;46995;55.740;37.402;2022-11-10T00:56:51;99657.13;;;9.31;80.14
61109;BME280;46995;55.740;37.402;2022-11-10T00:59:35;99690.38;;;9.55;79.81
61109;BME280;46995;55.740;37.402;2022-11-10T01:02:20;99646.44;;;9.22;79.99
61109;BME280;46995;55.740;37.402;2022-11-10T01:05:04;99654.13;;;9.25;80.13
61109;BME280;46995;55.740;37.402;2022-11-10T01:07:49;99641.53;;;9.17;80.18
61109;BME280;46995;55.740;37.402;2022-11-10T01:10:33;99660.44;;;9.33;79.79
61109;BME280;46995;55.740;37.402;2022-11-10T01:13:17;99661.19;;;9.35;80.09
61109;BME280;46995;55.740;37.402;2022-11-10T01:16:11;99697.09;;;9.59;80.17
61109;BME280;46995;55.740;37.402;2022-11-10T01:18:58;99677.69;;;9.38;80.16
61109;BME280;46995;55.740;37.402;2022-11-10T01:21:42;99639.03;;;9.16;80.18
61109;BME280;46995;55.740;37.402;2022-11-10T01:24:27;99655.53;;;9.18;80.56
61109;BME280;46995;55.740;37.402;2022-11-10T01:27:11;99650.88;;;9.21;80.39
61109;BME280;46995;55.740;37.402;2022-11-10T01:29:55;99687.53;;;9.47;79.90
61109;BME280;46995;55.740;37.402;2022-11-10T01:32:39;99644.91;;;9.19;79.96
61109;BME280;46995;55.740;37.402;2022-11-10T01:35:24;99656.75;;;9.25;80.16
61109;BME280;46995;55.740;37.402;2022-11-10T01:38:08;99666.94;;;9.29;80.18
61109;BME280;46995;55.740;37.402;2022-11-10T01:40:52;99676.50;;;9.30;80.30
61109;BME280;46995;55.740;37.402;2022-11-10T01:43:36;99650.06;;;9.21;80.19
61109;BME280;46995;55.740;37.402;2022-11-10T01:46:21;99677.94;;;9.34;80.22
61109;BME280;46995;55.740;37.402;2022-11-10T01:49:05;99648.00;;;9.13;79.93
61109;BME280;46995;55.740;37.402;2022-11-10T01:51:55;99667.41;;;9.23;80.31
61109;BME280;46995;55.740;37.402;2022-11-10T01:54:43;99682.25;;;9.35;80.31
61109;BME280;46995;55.740;37.402;2022-11-10T01:57:30;99654.59;;;9.08;80.42
61109;BME280;46995;55.740;37.402;2022-11-10T02:00:15;99651.13;;;9.07;80.47
61109;BME280;46995;55.740;37.402;2022-11-10T02:03:08;99682.47;;;9.32;80.31
61109;BME280;46995;55.740;37.402;2022-11-10T02:05:54;99666.19;;;9.16;80.35
61109;BME280;46995;55.740;37.402;2022-11-10T02:08:40;99659.38;;;9.14;80.64
61109;BME280;46995;55.740;37.402;2022-11-10T02:11:26;99657.22;;;9.08;80.49
61109;BME280;46995;55.740;37.402;2022-11-10T02:14:11;99649.19;;;8.98;80.47
61109;BME280;46995;55.740;37.402;2022-11-10T02:16:56;99669.34;;;9.10;80.75
61109;BME280;46995;55.740;37.402;2022-11-10T02:19:41;99662.59;;;9.06;80.47
61109;BME280;46995;55.740;37.402;2022-11-10T02:22:25;99655.41;;;8.97;80.83
61109;BME280;46995;55.740;37.402;2022-11-10T02:25:11;99665.84;;;8.99;80.96
61109;BME280;46995;55.740;37.402;2022-11-10T02:27:57;99638.44;;;8.79;80.92
61109;BME280;46995;55.740;37.402;2022-11-10T02:30:41;99676.97;;;9.02;80.99
61109;BME280;46995;55.740;37.402;2022-11-10T02:33:25;99645.94;;;8.72;81.12
61109;BME280;46995;55.740;37.402;2022-11-10T02:36:10;99655.88;;;8.80;81.15
61109;BME280;46995;55.740;37.402;2022-11-10T02:38:54;99666.06;;;8.96;81.25
61109;BME280;46995;55.740;37.402;2022-11-10T02:41:39;99658.66;;;8.78;81.36
61109;BME280;46995;55.740;37.402;2022-11-10T02:44:23;99674.56;;;8.88;81.47
61109;BME280;46995;55.740;37.402;2022-11-10T02:47:08;99679.84;;;8.88;81.48
61109;BME280;46995;55.740;37.402;2022-11-10T02:49:52;99669.03;;;8.80;81.19
61109;BME280;46995;55.740;37.402;2022-11-10T02:52:37;99698.16;;;8.89;81.63
61109;BME280;46995;55.740;37.402;2022-11-10T02:55:21;99677.75;;;8.69;81.57
61109;BME280;46995;55.740;37.402;2022-11-10T02:58:05;99631.91;;;8.49;81.42
61109;BME280;46995;55.740;37.402;2022-11-10T03:00:49;99676.47;;;8.86;81.42
61109;BME280;46995;55.740;37.402;2022-11-10T03:03:34;99705.72;;;9.05;81.31
61109;BME280;46995;55.740;37.402;2022-11-10T03:06:18;99701.41;;;9.04;80.98
61109;BME280;46995;55.740;37.402;2022-11-10T03:09:03;99650.00;;;8.76;81.40
61109;BME280;46995;55.740;37.402;2022-11-10T03:11:47;99673.13;;;8.84;80.96
61109;BME280;46995;55.740;37.402;2022-11-10T03:14:32;99665.56;;;8.79;81.19
61109;BME280;46995;55.740;37.402;2022-11-10T03:17:16;99668.72;;;8.84;81.07
61109;BME280;46995;55.740;37.402;2022-11-10T03:20:00;99656.72;;;8.80;80.92
61109;BME280;46995;55.740;37.402;2022-11-10T03:22:45;99677.91;;;8.90;80.85
61109;BME280;46995;55.740;37.402;2022-11-10T03:25:29;99665.00;;;8.98;80.83
61109;BME280;46995;55.740;37.402;2022-11-10T03:28:14;99649.56;;;8.93;80.63
61109;BME280;46995;55.740;37.402;2022-11-10T03:30:58;99656.16;;;8.99;80.46
61109;BME280;46995;55.740;37.402;2022-11-10T03:33:43;99663.34;;;9.08;80.42
61109;BME280;46995;55.740;37.402;2022-11-10T03:36:27;99644.03;;;8.97;80.53
61109;BME280;46995;55.740;37.402;2022-11-10T03:39:11;99643.09;;;8.98;79.95
61109;BME280;46995;55.740;37.402;2022-11-10T03:41:55;99639.13;;;8.92;80.21
61109;BME280;46995;55.740;37.402;2022-11-10T03:44:39;99645.63;;;8.99;80.46
61109;BME280;46995;55.740;37.402;2022-11-10T03:47:24;99662.13;;;9.12;80.15
61109;BME280;46995;55.740;37.402;2022-11-10T03:50:09;99624.53;;;8.99;80.25
61109;BME280;46995;55.740;37.402;2022-11-10T03:52:53;99630.50;;;8.90;80.19
61109;BME280;46995;55.740;37.402;2022-11-10T03:55:37;99639.88;;;8.94;80.44
61109;BME280;46995;55.740;37.402;2022-11-10T03:58:21;99637.72;;;8.88;80.61
61109;BME280;46995;55.740;37.402;2022-11-10T04:01:05;99666.91;;;9.07;80.50
61109;BME280;46995;55.740;37.402;2022-11-10T04:03:50;99639.13;;;8.92;80.54
61109;BME280;46995;55.740;37.402;2022-11-10T04:06:34;99654.22;;;9.01;80.50
61109;BME280;46995;55.740;37.402;2022-11-10T04:09:37;99632.66;;;8.85;80.40
61109;BME280;46995;55.740;37.402;2022-11-10T04:12:21;99603.56;;;8.64;80.31
61109;BME280;46995;55.740;37.402;2022-11-10T04:15:24;99621.44;;;8.83;80.24
61109;BME280;46995;55.740;37.402;2022-11-10T04:18:26;99621.53;;;8.81;80.18
61109;BME280;46995;55.740;37.402;2022-11-10T04:21:12;99673.38;;;9.03;80.46
61109;BME280;46995;55.740;37.402;2022-11-10T04:23:57;99609.56;;;8.66;80.13
61109;BME280;46995;55.740;37.402;2022-11-10T04:26:42;99618.88;;;8.70;80.37
61109;BME280;46995;55.740;37.402;2022-11-10T04:29:26;99636.00;;;8.65;80.56
61109;BME280;46995;55.740;37.402;2022-11-10T04:32:11;99657.81;;;8.78;80.56
61109;BME280;46995;55.740;37.402;2022-11-10T04:34:55;99634.81;;;8.69;80.35
61109;BME280;46995;55.740;37.402;2022-11-10T04:37:40;99640.78;;;8.71;80.16
61109;BME280;46995;55.740;37.402;2022-11-10T04:40:24;99673.63;;;8.89;80.27
61109;BME280;46995;55.740;37.402;2022-11-10T04:43:11;99654.06;;;8.69;80.43
61109;BME280;46995;55.740;37.402;2022-11-10T04:45:56;99695.41;;;8.91;80.28
61109;BME280;46995;55.740;37.402;2022-11-10T04:48:40;99680.31;;;8.82;80.21
61109;BME280;46995;55.740;37.402;2022-11-10T04:51:27;99700.31;;;8.84;80.41
61109;BME280;46995;55.740;37.402;2022-11-10T04:54:12;99686.03;;;8.76;80.71
61109;BME280;46995;55.740;37.402;2022-11-10T04:56:56;99648.91;;;8.57;80.39
61109;BME280;46995;55.740;37.402;2022-11-10T04:59:40;99664.47;;;8.71;80.19
61109;BME280;46995;55.740;37.402;2022-11-10T05:02:24;99649.50;;;8.60;80.08
61109;BME280;46995;55.740;37.402;2022-11-10T05:05:08;99621.28;;;8.27;80.04
61109;BME280;46995;55.740;37.402;2022-11-10T05:07:53;99698.97;;;8.68;80.41
61109;BME280;46995;55.740;37.402;2022-11-10T05:10:43;99684.06;;;8.56;80.40
61109;BME280;46995;55.740;37.402;2022-11-10T05:13:27;99660.34;;;8.44;80.29
61109;BME280;46995;55.740;37.402;2022-11-10T05:16:12;99657.97;;;8.41;80.28
61109;BME280;46995;55.740;37.402;2022-11-10T05:18:56;99660.09;;;8.36;79.98
61109;BME280;46995;55.740;37.402;2022-11-10T05:21:41;99647.59;;;8.27;80.20
61109;BME280;46995;55.740;37.402;2022-11-10T05:24:25;99679.97;;;8.40;80.09
61109;BME280;46995;55.740;37.402;2022-11-10T05:27:12;99702.47;;;8.44;80.01
61109;BME280;46995;55.740;37.402;2022-11-10T05:29:57;99655.22;;;8.19;80.17
61109;BME280;46995;55.740;37.402;2022-11-10T05:32:41;99667.19;;;8.23;80.15
61109;BME280;46995;55.740;37.402;2022-11-10T05:35:25;99661.44;;;8.18;80.08
61109;BME280;46995;55.740;37.402;2022-11-10T05:38:09;99674.09;;;8.37;79.96
61109;BME280;46995;55.740;37.402;2022-11-10T05:40:54;99651.28;;;8.25;79.50
61109;BME280;46995;55.740;37.402;2022-11-10T05:43:39;99652.13;;;8.25;79.49
61109;BME280;46995;55.740;37.402;2022-11-10T05:46:24;99659.78;;;8.28;79.75
61109;BME280;46995;55.740;37.402;2022-11-10T05:49:09;99687.13;;;8.38;79.69
61109;BME280;46995;55.740;37.402;2022-11-10T05:51:53;99664.75;;;8.33;79.67
61109;BME280;46995;55.740;37.402;2022-11-10T05:54:38;99677.69;;;8.36;79.54
61109;BME280;46995;55.740;37.402;2022-11-10T05:57:23;99627.09;;;8.08;79.35
61109;BME280;46995;55.740;37.402;2022-11-10T06:00:12;99655.47;;;8.16;79.26
61109;BME280;46995;55.740;37.402;2022-11-10T06:03:05;99658.34;;;8.24;79.34
61109;BME280;46995;55.740;37.402;2022-11-10T06:05:49;99640.13;;;8.10;79.87
61109;BME280;46995;55.740;37.402;2022-11-10T06:08:34;99664.06;;;8.18;79.60
61109;BME280;46995;55.740;37.402;2022-11-10T06:11:19;99663.34;;;8.16;79.18
61109;BME280;46995;55.740;37.402;2022-11-10T06:14:03;99707.03;;;8.42;79.06
61109;BME280;46995;55.740;37.402;2022-11-10T06:16:48;99690.09;;;8.34;78.70
61109;BME280;46995;55.740;37.402;2022-11-10T06:19:32;99669.47;;;8.28;78.80
61109;BME280;46995;55.740;37.402;2022-11-10T06:22:16;99672.78;;;8.31;78.15
61109;BME280;46995;55.740;37.402;2022-11-10T06:25:01;99674.13;;;8.24;78.26
61109;BME280;46995;55.740;37.402;2022-11-10T06:27:45;99683.91;;;8.35;78.40
61109;BME280;46995;55.740;37.402;2022-11-10T06:30:30;99680.19;;;8.37;78.37
61109;BME280;46995;55.740;37.402;2022-11-10T06:33:15;99664.38;;;8.37;78.16
61109;BME280;46995;55.740;37.402;2022-11-10T06:36:00;99691.03;;;8.57;77.99
61109;BME280;46995;55.740;37.402;2022-11-10T06:38:44;99654.44;;;8.30;77.88
61109;BME280;46995;55.740;37.402;2022-11-10T06:41:28;99700.94;;;8.53;78.08
61109;BME280;46995;55.740;37.402;2022-11-10T06:44:12;99663.34;;;8.16;78.00
61109;BME280;46995;55.740;37.402;2022-11-10T06:46:56;99674.59;;;8.18;78.18
61109;BME280;46995;55.740;37.402;2022-11-10T06:49:41;99714.91;;;8.42;78.26
61109;BME280;46995;55.740;37.402;2022-11-10T06:52:25;99665.00;;;8.17;78.34
61109;BME280;46995;55.740;37.402;2022-11-10T06:55:09;99680.00;;;8.28;77.98
61109;BME280;46995;55.740;37.402;2022-11-10T06:57:54;99713.38;;;8.51;77.78
61109;BME280;46995;55.740;37.402;2022-11-10T07:00:38;99680.84;;;8.28;78.00
61109;BME280;46995;55.740;37.402;2022-11-10T07:03:23;99665.75;;;8.19;78.01
61109;BME280;46995;55.740;37.402;2022-11-10T07:06:07;99695.75;;;8.40;77.77
61109;BME280;46995;55.740;37.402;2022-11-10T07:08:51;99678.22;;;8.28;77.40
61109;BME280;46995;55.740;37.402;2022-11-10T07:11:35;99700.41;;;8.37;77.23
61109;BME280;46995;55.740;37.402;2022-11-10T07:14:20;99695.38;;;8.34;77.62
61109;BME280;46995;55.740;37.402;2022-11-10T07:17:04;99681.44;;;8.21;77.33
61109;BME280;46995;55.740;37.402;2022-11-10T07:19:48;99672.94;;;8.28;77.37
61109;BME280;46995;55.740;37.402;2022-11-10T07:22:33;99677.69;;;8.36;77.35
61109;BME280;46995;55.740;37.402;2022-11-10T07:25:17;99687.41;;;8.46;76.70
61109;BME280;46995;55.740;37.402;2022-11-10T07:28:04;99704.81;;;8.71;76.45
61109;BME280;46995;55.740;37.402;2022-11-10T07:30:48;99678.56;;;8.59;76.51
61109;BME280;46995;55.740;37.402;2022-11-10T07:33:32;99667.09;;;8.60;76.20
61109;BME280;46995;55.740;37.402;2022-11-10T07:36:17;99667.56;;;8.65;75.78
61109;BME280;46995;55.740;37.402;2022-11-10T07:39:01;99683.38;;;8.65;76.10
61109;BME280;46995;55.740;37.402;2022-11-10T07:41:45;99675.81;;;8.60;76.04
61109;BME280;46995;55.740;37.402;2022-11-10T07:44:29;99693.56;;;8.58;76.28
61109;BME280;46995;55.740;37.402;2022-11-10T07:47:13;99703.34;;;8.56;76.77
61109;BME280;46995;55.740;37.402;2022-11-10T07:49:58;99704.88;;;8.59;76.81
61109;BME280;46995;55.740;37.402;2022-11-10T07:52:42;99722.41;;;8.71;76.79
61109;BME280;46995;55.740;37.402;2022-11-10T07:55:27;99675.69;;;8.50;76.61
61109;BME280;46995;55.740;37.402;2022-11-10T07:58:14;99687.91;;;8.52;76.63
61109;BME280;46995;55.740;37.402;2022-11-10T08:00:58;99718.38;;;8.78;76.47
61109;BME280;46995;55.740;37.402;2022-11-10T08:03:42;99703.97;;;8.71;76.65
61109;BME280;46995;55.740;37.402;2022-11-10T08:06:27;99670.66;;;8.47;76.64
61109;BME280;46995;55.740;37.402;2022-11-10T08:09:11;99715.25;;;8.73;76.62
61109;BME280;46995;55.740;37.402;2022-11-10T08:11:55;99707.34;;;8.73;76.70
61109;BME280;46995;55.740;37.402;2022-11-10T08:14:40;99697.50;;;8.64;76.82
61109;BME280;46995;55.740;37.402;2022-11-10T08:17:24;99719.81;;;8.82;76.63
61109;BME280;46995;55.740;37.402;2022-11-10T08:20:08;99700.16;;;8.75;76.67
61109;BME280;46995;55.740;37.402;2022-11-10T08:23:00;99717.91;;;8.95;76.02
61109;BME280;46995;55.740;37.402;2022-11-10T08:25:45;99711.19;;;8.91;76.13
61109;BME280;46995;55.740;37.402;2022-11-10T08:28:30;99683.44;;;8.87;76.06
61109;BME280;46995;55.740;37.402;2022-11-10T08:31:15;99711.22;;;9.02;76.11
61109;BME280;46995;55.740;37.402;2022-11-10T08:33:59;99708.00;;;8.99;76.06
61109;BME280;46995;55.740;37.402;2022-11-10T08:36:45;99724.97;;;9.06;75.84
61109;BME280;46995;55.740;37.402;2022-11-10T08:39:30;99715.53;;;9.03;75.97
61109;BME280;46995;55.740;37.402;2022-11-10T08:42:39;99724.16;;;9.16;76.00
61109;BME280;46995;55.740;37.402;2022-11-10T08:45:24;99718.41;;;9.11;75.72
61109;BME280;46995;55.740;37.402;2022-11-10T08:48:17;99696.75;;;9.19;75.22
61109;BME280;46995;55.740;37.402;2022-11-10T08:51:02;99707.19;;;9.31;75.28
61109;BME280;46995;55.740;37.402;2022-11-10T08:53:46;99683.56;;;9.19;75.22
61109;BME280;46995;55.740;37.402;2022-11-10T08:56:31;99695.19;;;9.16;75.58
61109;BME280;46995;55.740;37.402;2022-11-10T08:59:15;99693.75;;;9.12;75.43
61109;BME280;46995;55.740;37.402;2022-11-10T09:01:59;99656.50;;;8.83;75.62
61109;BME280;46995;55.740;37.402;2022-11-10T09:04:44;99682.72;;;9.07;75.33
61109;BME280;46995;55.740;37.402;2022-11-10T09:07:29;99684.03;;;9.13;75.41
61109;BME280;46995;55.740;37.402;2022-11-10T09:10:14;99696.50;;;9.33;75.24
61109;BME280;46995;55.740;37.402;2022-11-10T09:13:00;99713.16;;;9.56;74.74
61109;BME280;46995;55.740;37.402;2022-11-10T09:15:45;99668.09;;;9.48;74.39
61109;BME280;46995;55.740;37.402;2022-11-10T09:18:29;99695.28;;;9.70;73.91
61109;BME280;46995;55.740;37.402;2022-11-10T09:21:14;99703.53;;;9.77;73.89
61109;BME280;46995;55.740;37.402;2022-11-10T09:23:58;99690.47;;;9.64;74.00
61109;BME280;46995;55.740;37.402;2022-11-10T09:26:42;99698.03;;;9.58;74.33
61109;BME280;46995;55.740;37.402;2022-11-10T09:29:30;99683.44;;;9.43;74.63
61109;BME280;46995;55.740;37.402;2022-11-10T09:32:14;99688.00;;;9.41;74.66
61109;BME280;46995;55.740;37.402;2022-11-10T09:34:58;99706.47;;;9.52;75.07
61109;BME280;46995;55.740;37.402;2022-11-10T09:37:43;99676.84;;;9.37;74.86
61109;BME280;46995;55.740;37.402;2022-11-10T09:46:52;99693.28;;;9.41;75.37
61109;BME280;46995;55.740;37.402;2022-11-10T09:49:45;99679.00;;;9.32;75.59
61109;BME280;46995;55.740;37.402;2022-11-10T09:52:33;99661.19;;;9.24;75.50
61109;BME280;46995;55.740;37.402;2022-11-10T09:55:29;99671.72;;;9.47;75.27
61109;BME280;46995;55.740;37.402;2022-11-10T09:58:15;99644.75;;;9.32;75.13
61109;BME280;46995;55.740;37.402;2022-11-10T10:01:41;99695.53;;;9.67;74.96
61109;BME280;46995;55.740;37.402;2022-11-10T10:07:26;99691.09;;;9.68;74.69
61109;BME280;46995;55.740;37.402;2022-11-10T10:10:20;99648.22;;;9.32;75.14
61109;BME280;46995;55.740;37.402;2022-11-10T10:25:25;99652.25;;;9.59;74.71
61109;BME280;46995;55.740;37.402;2022-11-10T10:31:20;99679.06;;;9.86;74.39
61109;BME280;46995;55.740;37.402;2022-11-10T10:34:20;99647.53;;;9.73;74.27
61109;BME280;46995;55.740;37.402;2022-11-10T10:37:38;99667.78;;;9.84;74.13
61109;BME280;46995;55.740;37.402;2022-11-10T10:40:24;99691.00;;;10.01;73.96
61109;BME280;46995;55.740;37.402;2022-11-10T10:43:08;99681.94;;;9.94;74.20
61109;BME280;46995;55.740;37.402;2022-11-10T10:46:07;99700.22;;;10.07;74.00
61109;BME280;46995;55.740;37.402;2022-11-10T10:49:14;99665.97;;;9.85;74.09
61109;BME280;46995;55.740;37.402;2022-11-10T10:52:10;99671.59;;;9.91;73.87
61109;BME280;46995;55.740;37.402;2022-11-10T10:54:59;99681.66;;;9.97;74.11
61109;BME280;46995;55.740;37.402;2022-11-10T11:01:23;99661.09;;;9.80;74.05
61109;BME280;46995;55.740;37.402;2022-11-10T11:04:32;99697.03;;;9.92;74.54
61109;BME280;46995;55.740;37.402;2022-11-10T11:07:22;99687.72;;;9.77;74.98
61109;BME280;46995;55.740;37.402;2022-11-10T11:10:27;99711.28;;;9.90;75.00
61109;BME280;46995;55.740;37.402;2022-11-10T11:13:23;99701.34;;;9.93;75.16
61109;BME280;46995;55.740;37.402;2022-11-10T11:16:09;99647.84;;;9.48;74.58
61109;BME280;46995;55.740;37.402;2022-11-10T11:18:56;99658.16;;;9.51;74.74
61109;BME280;46995;55.740;37.402;2022-11-10T11:24:50;99706.19;;;9.77;74.85
61109;BME280;46995;55.740;37.402;2022-11-10T11:34:14;99681.41;;;9.46;75.23
61109;BME280;46995;55.740;37.402;2022-11-10T11:43:06;99636.72;;;9.33;74.76
61109;BME280;46995;55.740;37.402;2022-11-10T11:45:58;99703.56;;;9.66;74.78
61109;BME280;46995;55.740;37.402;2022-11-10T11:48:50;99704.28;;;9.57;75.21
61109;BME280;46995;55.740;37.402;2022-11-10T11:51:52;99695.91;;;9.52;75.46
61109;BME280;46995;55.740;37.402;2022-11-10T11:55:09;99667.16;;;9.38;75.28
61109;BME280;46995;55.740;37.402;2022-11-10T12:17:08;99668.34;;;9.45;75.38
61109;BME280;46995;55.740;37.402;2022-11-10T12:26:30;99707.63;;;9.48;75.75
61109;BME280;46995;55.740;37.402;2022-11-10T12:29:26;99713.88;;;9.35;75.87
61109;BME280;46995;55.740;37.402;2022-11-10T12:32:35;99738.78;;;9.43;76.20
61109;BME280;46995;55.740;37.402;2022-11-10T12:35:28;99720.22;;;9.33;76.39
61109;BME280;46995;55.740;37.402;2022-11-10T12:38:20;99705.88;;;9.26;76.05
61109;BME280;46995;55.740;37.402;2022-11-10T12:41:13;99738.56;;;9.46;76.01
61109;BME280;46995;55.740;37.402;2022-11-10T12:44:07;99742.75;;;9.37;76.17
61109;BME280;46995;55.740;37.402;2022-11-10T12:46:58;99712.94;;;9.25;76.47
61109;BME280;46995;55.740;37.402;2022-11-10T12:50:03;99690.16;;;9.13;76.49
61109;BME280;46995;55.740;37.402;2022-11-10T12:52:56;99685.72;;;9.14;76.44
61109;BME280;46995;55.740;37.402;2022-11-10T12:55:58;99694.13;;;9.19;76.59
61109;BME280;46995;55.740;37.402;2022-11-10T12:58:44;99684.88;;;9.13;76.05
61109;BME280;46995;55.740;37.402;2022-11-10T13:01:28;99695.69;;;9.10;76.39
61109;BME280;46995;55.740;37.402;2022-11-10T13:04:14;99678.53;;;8.93;76.51
61109;BME280;46995;55.740;37.402;2022-11-10T13:07:02;99742.50;;;9.29;76.64
61109;BME280;46995;55.740;37.402;2022-11-10T13:09:47;99702.00;;;9.08;76.29
61109;BME280;46995;55.740;37.402;2022-11-10T13:12:31;99701.03;;;8.98;76.63
61109;BME280;46995;55.740;37.402;2022-11-10T13:18:50;99756.53;;;9.29;76.80
61109;BME280;46995;55.740;37.402;2022-11-10T13:24:38;99764.66;;;9.38;76.78
61109;BME280;46995;55.740;37.402;2022-11-10T13:30:07;99701.03;;;8.98;76.55
61109;BME280;46995;55.740;37.402;2022-11-10T13:32:52;99694.34;;;8.93;76.70
61109;BME280;46995;55.740;37.402;2022-11-10T13:38:38;99752.69;;;9.22;76.71
61109;BME280;46995;55.740;37.402;2022-11-10T13:41:25;99752.69;;;9.22;76.87
61109;BME280;46995;55.740;37.402;2022-11-10T13:47:18;99736.75;;;9.13;76.53
61109;BME280;46995;55.740;37.402;2022-11-10T13:59:43;99735.88;;;9.01;77.08
61109;BME280;46995;55.740;37.402;2022-11-10T14:02:47;99776.41;;;9.22;76.92
61109;BME280;46995;55.740;37.402;2022-11-10T14:08:22;99733.72;;;8.95;77.33
61109;BME280;46995;55.740;37.402;2022-11-10T14:11:17;99750.28;;;9.08;77.69
61109;BME280;46995;55.740;37.402;2022-11-10T14:14:18;99751.50;;;9.15;77.63
61109;BME280;46995;55.740;37.402;2022-11-10T14:17:18;99730.13;;;8.96;77.64
61109;BME280;46995;55.740;37.402;2022-11-10T14:20:03;99704.25;;;8.90;77.66
61109;BME280;46995;55.740;37.402;2022-11-10T14:22:48;99710.72;;;8.97;77.78
61109;BME280;46995;55.740;37.402;2022-11-10T14:25:41;99717.91;;;9.06;78.21
61109;BME280;46995;55.740;37.402;2022-11-10T14:28:29;99694.34;;;8.93;77.99
61109;BME280;46995;55.740;37.402;2022-11-10T14:31:22;99720.03;;;8.90;78.14
61109;BME280;46995;55.740;37.402;2022-11-10T14:34:12;99701.38;;;8.82;78.19
61109;BME280;46995;55.740;37.402;2022-11-10T14:37:01;99727.72;;;8.82;78.06
61109;BME280;46995;55.740;37.402;2022-11-10T14:39:47;99765.22;;;9.08;78.30
61109;BME280;46995;55.740;37.402;2022-11-10T14:42:37;99750.72;;;9.02;78.10
61109;BME280;46995;55.740;37.402;2022-11-10T14:45:26;99764.53;;;9.17;77.78
61109;BME280;46995;55.740;37.402;2022-11-10T14:48:16;99752.91;;;9.08;78.13
61109;BME280;46995;55.740;37.402;2022-11-10T14:51:03;99773.16;;;9.19;77.92
61109;BME280;46995;55.740;37.402;2022-11-10T14:53:52;99741.88;;;9.03;77.68
61109;BME280;46995;55.740;37.402;2022-11-10T14:56:38;99754.69;;;9.08;78.10
61109;BME280;46995;55.740;37.402;2022-11-10T14:59:24;99714.56;;;8.93;77.77
61109;BME280;46995;55.740;37.402;2022-11-10T15:02:14;99759.72;;;9.11;78.28
61109;BME280;46995;55.740;37.402;2022-11-10T15:04:58;99776.25;;;9.13;78.08
61109;BME280;46995;55.740;37.402;2022-11-10T15:07:44;99779.50;;;9.16;78.23
61109;BME280;46995;55.740;37.402;2022-11-10T15:16:33;99783.09;;;9.15;78.66
61109;BME280;46995;55.740;37.402;2022-11-10T15:19:28;99729.88;;;8.88;78.19
61109;BME280;46995;55.740;37.402;2022-11-10T15:22:19;99767.97;;;9.06;78.36
61109;BME280;46995;55.740;37.402;2022-11-10T15:25:12;99777.34;;;9.10;78.27
61109;BME280;46995;55.740;37.402;2022-11-10T15:28:26;99762.97;;;9.03;78.65
61109;BME280;46995;55.740;37.402;2022-11-10T15:31:24;99752.38;;;8.92;78.03
61109;BME280;46995;55.740;37.402;2022-11-10T15:34:30;99736.56;;;8.81;78.22
61109;BME280;46995;55.740;37.402;2022-11-10T15:46:16;99732.72;;;8.74;78.61
61109;BME280;46995;55.740;37.402;2022-11-10T15:49:02;99769.97;;;8.91;78.35
61109;BME280;46995;55.740;37.402;2022-11-10T15:51:49;99770.38;;;8.98;78.40
61109;BME280;46995;55.740;37.402;2022-11-10T15:54:34;99770.38;;;8.98;78.37
61109;BME280;46995;55.740;37.402;2022-11-10T15:57:20;99730.22;;;8.83;78.31
61109;BME280;46995;55.740;37.402;2022-11-10T16:00:10;99739.69;;;8.86;78.40
61109;BME280;46995;55.740;37.402;2022-11-10T16:02:55;99705.38;;;8.64;78.21
61109;BME280;46995;55.740;37.402;2022-11-10T16:05:41;99721.94;;;8.77;78.32
61109;BME280;46995;55.740;37.402;2022-11-10T16:08:28;99755.88;;;8.92;78.37
61109;BME280;46995;55.740;37.402;2022-11-10T16:11:20;99722.41;;;8.71;78.34
61109;BME280;46995;55.740;37.402;2022-11-10T16:14:09;99723.75;;;8.76;78.53
61109;BME280;46995;55.740;37.402;2022-11-10T16:16:59;99721.50;;;8.83;78.18
61109;BME280;46995;55.740;37.402;2022-11-10T16:19:44;99726.75;;;8.83;78.38
61109;BME280;46995;55.740;37.402;2022-11-10T16:22:29;99705.91;;;8.69;77.99
61109;BME280;46995;55.740;37.402;2022-11-10T16:25:14;99714.50;;;8.71;78.05
61109;BME280;46995;55.740;37.402;2022-11-10T16:27:58;99775.38;;;9.01;78.22
61109;BME280;46995;55.740;37.402;2022-11-10T16:30:45;99725.53;;;8.76;78.24
61109;BME280;46995;55.740;37.402;2022-11-10T16:33:30;99715.25;;;8.73;78.17
61109;BME280;46995;55.740;37.402;2022-11-10T16:36:35;99755.63;;;8.96;78.23
61109;BME280;46995;55.740;37.402;2022-11-10T16:39:19;99738.69;;;8.76;78.00